createdAt,value
2023-02-15T00:01:05.715Z,0
2023-02-15T00:02:14.843Z,0
2023-02-15T00:03:24.071Z,0
2023-02-15T00:04:33.164Z,0
2023-02-15T00:05:42.564Z,0
2023-02-15T00:06:51.528Z,0
2023-02-15T00:08:00.674Z,0
2023-02-15T00:09:09.911Z,0
2023-02-15T00:10:19.033Z,0
2023-02-15T00:11:28.203Z,0
2023-02-15T00:12:37.371Z,0
2023-02-15T00:13:46.570Z,0
2023-02-15T00:14:55.761Z,0
2023-02-15T00:16:03.899Z,0
2023-02-15T00:17:13.096Z,0
2023-02-15T00:18:22.265Z,0
2023-02-15T00:19:31.460Z,0
2023-02-15T00:20:40.648Z,0
2023-02-15T00:21:49.869Z,0
2023-02-15T00:22:58.942Z,0
2023-02-15T00:24:07.169Z,0
2023-02-15T00:25:15.321Z,0
2023-02-15T00:26:23.527Z,0
2023-02-15T00:27:31.713Z,0
2023-02-15T00:28:40.904Z,0
2023-02-15T00:29:50.063Z,0
2023-02-15T00:30:59.223Z,0
2023-02-15T00:32:08.428Z,0
2023-02-15T00:33:17.583Z,0
2023-02-15T00:34:26.787Z,0
2023-02-15T00:35:35.927Z,0
2023-02-15T00:36:45.096Z,0
2023-02-15T00:37:54.277Z,0
2023-02-15T00:39:03.445Z,0
2023-02-15T00:40:12.620Z,0
2023-02-15T00:41:21.782Z,0
2023-02-15T00:42:29.983Z,0
2023-02-15T00:43:39.142Z,0
2023-02-15T00:44:48.321Z,0
2023-02-15T00:45:57.494Z,0
2023-02-15T00:47:06.666Z,0
2023-02-15T00:48:15.840Z,0
2023-02-15T00:49:25.025Z,0
2023-02-15T00:50:33.209Z,0
2023-02-15T00:51:41.457Z,0
2023-02-15T00:52:50.578Z,0
2023-02-15T00:53:58.761Z,0
2023-02-15T00:55:07.946Z,0
2023-02-15T00:56:16.137Z,0
2023-02-15T00:57:25.305Z,0
2023-02-15T00:58:34.537Z,0
2023-02-15T00:59:43.649Z,0
2023-02-15T01:00:52.823Z,0
2023-02-15T01:02:01.984Z,0
2023-02-15T01:03:11.174Z,0
2023-02-15T01:04:20.410Z,0
2023-02-15T01:05:29.548Z,0
2023-02-15T01:06:38.706Z,0
2023-02-15T01:07:47.862Z,0
2023-02-15T01:08:57.038Z,0
2023-02-15T01:10:06.213Z,0
2023-02-15T01:11:14.388Z,0
2023-02-15T01:12:23.642Z,0
2023-02-15T01:13:32.742Z,0
2023-02-15T01:14:41.913Z,0
2023-02-15T01:15:51.103Z,0
2023-02-15T01:17:00.257Z,0
2023-02-15T01:18:08.459Z,0
2023-02-15T01:19:16.781Z,0
2023-02-15T01:20:24.966Z,0
2023-02-15T01:21:33.204Z,0
2023-02-15T01:22:42.265Z,0
2023-02-15T01:23:51.468Z,0
2023-02-15T01:25:00.702Z,0
2023-02-15T01:26:09.829Z,0
2023-02-15T01:27:19.076Z,0
2023-02-15T01:28:28.119Z,0
2023-02-15T01:29:37.393Z,0
2023-02-15T01:30:46.625Z,0
2023-02-15T01:31:55.708Z,0
2023-02-15T01:33:04.767Z,0
2023-02-15T01:34:14.073Z,0
2023-02-15T01:35:23.270Z,0
2023-02-15T01:36:31.298Z,0
2023-02-15T01:37:40.482Z,0
2023-02-15T01:38:49.707Z,0
2023-02-15T01:39:58.983Z,0
2023-02-15T01:41:08.173Z,0
2023-02-15T01:42:17.284Z,0
2023-02-15T01:43:26.338Z,0
2023-02-15T01:44:34.539Z,0
2023-02-15T01:45:42.730Z,0
2023-02-15T01:46:51.913Z,0
2023-02-15T01:48:00.086Z,0
2023-02-15T01:49:08.272Z,0
2023-02-15T01:50:17.494Z,0
2023-02-15T01:51:26.633Z,0
2023-02-15T01:52:35.955Z,0
2023-02-15T01:53:44.987Z,0
2023-02-15T01:54:54.252Z,0
2023-02-15T01:56:03.313Z,0
2023-02-15T01:57:12.504Z,0
2023-02-15T01:58:21.783Z,0
2023-02-15T01:59:30.918Z,0
2023-02-15T02:00:40.120Z,0
2023-02-15T02:01:49.325Z,0
2023-02-15T02:02:58.368Z,0
2023-02-15T02:04:06.649Z,0
2023-02-15T02:05:15.789Z,0
2023-02-15T02:06:24.911Z,0
2023-02-15T02:07:34.147Z,0
2023-02-15T02:08:42.377Z,0
2023-02-15T02:09:51.535Z,0
2023-02-15T02:11:00.607Z,0
2023-02-15T02:12:08.843Z,0
2023-02-15T02:13:17.167Z,0
2023-02-15T02:14:25.365Z,0
2023-02-15T02:15:33.465Z,0
2023-02-15T02:16:42.607Z,0
2023-02-15T02:17:51.827Z,0
2023-02-15T02:19:01.006Z,0
2023-02-15T02:20:10.211Z,0
2023-02-15T02:21:19.291Z,0
2023-02-15T02:22:28.488Z,0
2023-02-15T02:23:37.719Z,0
2023-02-15T02:24:46.799Z,0
2023-02-15T02:25:55.990Z,0
2023-02-15T02:27:05.167Z,0
2023-02-15T02:28:14.333Z,0
2023-02-15T02:29:23.524Z,0
2023-02-15T02:30:31.669Z,0
2023-02-15T02:31:40.919Z,0
2023-02-15T02:32:50.067Z,0
2023-02-15T02:33:59.271Z,0
2023-02-15T02:35:08.356Z,0
2023-02-15T02:36:17.506Z,0
2023-02-15T02:37:26.734Z,0
2023-02-15T02:38:34.872Z,0
2023-02-15T02:39:44.084Z,0
2023-02-15T02:40:52.307Z,0
2023-02-15T02:42:00.446Z,0
2023-02-15T02:43:09.617Z,0
2023-02-15T02:44:18.789Z,0
2023-02-15T02:45:27.959Z,0
2023-02-15T02:46:37.207Z,0
2023-02-15T02:47:46.302Z,0
2023-02-15T02:48:55.475Z,0
2023-02-15T02:50:04.752Z,0
2023-02-15T02:51:13.842Z,0
2023-02-15T02:52:22.999Z,0
2023-02-15T02:53:32.166Z,0
2023-02-15T02:54:41.341Z,0
2023-02-15T02:55:50.675Z,0
2023-02-15T02:56:58.708Z,0
2023-02-15T02:58:07.910Z,0
2023-02-15T02:59:17.085Z,0
2023-02-15T03:00:26.250Z,0
2023-02-15T03:01:35.433Z,0
2023-02-15T03:02:44.607Z,0
2023-02-15T03:03:53.850Z,0
2023-02-15T03:05:01.977Z,0
2023-02-15T03:06:10.169Z,0
2023-02-15T03:07:19.340Z,0
2023-02-15T03:08:27.521Z,0
2023-02-15T03:09:35.711Z,0
2023-02-15T03:10:44.893Z,0
2023-02-15T03:11:54.071Z,0
2023-02-15T03:13:03.229Z,0
2023-02-15T03:14:12.418Z,0
2023-02-15T03:15:21.627Z,0
2023-02-15T03:16:30.780Z,0
2023-02-15T03:17:39.919Z,0
2023-02-15T03:18:49.173Z,0
2023-02-15T03:19:58.297Z,0
2023-02-15T03:21:07.518Z,0
2023-02-15T03:22:16.623Z,0
2023-02-15T03:23:25.796Z,0
2023-02-15T03:24:33.989Z,0
2023-02-15T03:25:43.174Z,0
2023-02-15T03:26:52.336Z,0
2023-02-15T03:28:01.562Z,0
2023-02-15T03:29:10.673Z,0
2023-02-15T03:30:19.880Z,0
2023-02-15T03:31:29.029Z,0
2023-02-15T03:32:37.237Z,0
2023-02-15T03:33:45.410Z,0
2023-02-15T03:34:53.608Z,0
2023-02-15T03:36:01.794Z,0
2023-02-15T03:37:10.967Z,0
2023-02-15T03:38:20.138Z,0
2023-02-15T03:39:29.311Z,0
2023-02-15T03:40:38.495Z,0
2023-02-15T03:41:47.666Z,0
2023-02-15T03:42:56.832Z,0
2023-02-15T03:44:06.020Z,0
2023-02-15T03:45:15.206Z,0
2023-02-15T03:46:24.367Z,0
2023-02-15T03:47:33.582Z,0
2023-02-15T03:48:42.710Z,0
2023-02-15T03:49:51.904Z,0
2023-02-15T03:51:01.076Z,0
2023-02-15T03:52:09.242Z,0
2023-02-15T03:53:18.408Z,0
2023-02-15T03:54:27.597Z,0
2023-02-15T03:55:36.772Z,0
2023-02-15T03:56:45.965Z,0
2023-02-15T03:57:55.114Z,0
2023-02-15T03:59:03.312Z,0
2023-02-15T04:00:11.569Z,0
2023-02-15T04:01:19.683Z,0
2023-02-15T04:02:27.870Z,0
2023-02-15T04:03:37.046Z,0
2023-02-15T04:04:46.218Z,0
2023-02-15T04:05:55.422Z,0
2023-02-15T04:07:04.574Z,0
2023-02-15T04:08:13.748Z,0
2023-02-15T04:09:22.916Z,0
2023-02-15T04:10:32.086Z,0
2023-02-15T04:12:50.433Z,0
2023-02-15T04:13:59.609Z,0
2023-02-15T04:15:08.786Z,0
2023-02-15T04:16:17.953Z,0
2023-02-15T04:17:26.138Z,0
2023-02-15T04:18:35.321Z,0
2023-02-15T04:19:44.588Z,0
2023-02-15T04:20:53.681Z,0
2023-02-15T04:22:02.862Z,0
2023-02-15T04:23:12.015Z,0
2023-02-15T04:24:21.174Z,0
2023-02-15T04:25:30.364Z,0
2023-02-15T04:26:38.547Z,0
2023-02-15T04:27:47.726Z,0
2023-02-15T04:28:55.913Z,0
2023-02-15T04:30:04.110Z,0
2023-02-15T04:31:13.280Z,0
2023-02-15T04:32:22.514Z,0
2023-02-15T04:33:31.619Z,0
2023-02-15T04:34:40.810Z,0
2023-02-15T04:35:50.034Z,0
2023-02-15T04:36:59.146Z,0
2023-02-15T04:38:08.330Z,0
2023-02-15T04:39:17.501Z,0
2023-02-15T04:40:26.693Z,0
2023-02-15T04:41:35.830Z,0
2023-02-15T04:42:45.013Z,0
2023-02-15T04:43:54.182Z,0
2023-02-15T04:45:02.415Z,0
2023-02-15T04:46:11.576Z,0
2023-02-15T04:47:20.752Z,0
2023-02-15T04:48:29.897Z,0
2023-02-15T04:49:39.078Z,0
2023-02-15T04:50:48.310Z,0
2023-02-15T04:51:57.413Z,0
2023-02-15T04:53:05.625Z,0
2023-02-15T04:54:13.807Z,0
2023-02-15T04:55:22.990Z,0
2023-02-15T04:56:32.212Z,0
2023-02-15T04:57:41.334Z,0
2023-02-15T04:58:50.493Z,0
2023-02-15T04:59:59.665Z,0
2023-02-15T05:01:08.856Z,0
2023-02-15T05:02:18.030Z,0
2023-02-15T05:03:27.194Z,0
2023-02-15T05:04:36.362Z,0
2023-02-15T05:05:45.534Z,0
2023-02-15T05:06:54.709Z,0
2023-02-15T05:08:03.880Z,0
2023-02-15T05:09:12.067Z,0
2023-02-15T05:10:21.246Z,0
2023-02-15T05:11:30.418Z,0
2023-02-15T05:12:39.631Z,0
2023-02-15T05:13:48.761Z,0
2023-02-15T05:14:57.927Z,0
2023-02-15T05:16:07.116Z,0
2023-02-15T05:17:15.298Z,0
2023-02-15T05:18:23.488Z,0
2023-02-15T05:19:31.680Z,0
2023-02-15T05:20:39.961Z,0
2023-02-15T05:21:49.057Z,0
2023-02-15T05:22:58.219Z,0
2023-02-15T05:24:07.382Z,0
2023-02-15T05:25:16.580Z,0
2023-02-15T05:26:25.774Z,0
2023-02-15T05:27:34.969Z,0
2023-02-15T05:28:44.143Z,0
2023-02-15T05:29:53.269Z,0
2023-02-15T05:31:02.446Z,0
2023-02-15T05:32:11.620Z,0
2023-02-15T05:33:20.798Z,0
2023-02-15T05:34:29.953Z,0
2023-02-15T05:35:38.209Z,0
2023-02-15T05:36:47.320Z,0
2023-02-15T05:37:56.521Z,0
2023-02-15T05:39:05.671Z,0
2023-02-15T05:40:14.843Z,0
2023-02-15T05:41:24.045Z,0
2023-02-15T05:42:33.185Z,0
2023-02-15T05:43:41.417Z,0
2023-02-15T05:44:49.616Z,0
2023-02-15T05:45:58.749Z,0
2023-02-15T05:47:06.943Z,0
2023-02-15T05:48:15.257Z,0
2023-02-15T05:49:24.327Z,0
2023-02-15T05:50:33.477Z,0
2023-02-15T05:51:42.803Z,0
2023-02-15T05:52:51.831Z,0
2023-02-15T05:54:01.009Z,0
2023-02-15T05:55:10.165Z,0
2023-02-15T05:56:19.375Z,0
2023-02-15T05:57:28.564Z,0
2023-02-15T05:58:37.696Z,0
2023-02-15T05:59:45.882Z,0
2023-02-15T06:00:55.069Z,0
2023-02-15T06:02:04.235Z,3
2023-02-15T06:03:13.402Z,3
2023-02-15T06:04:22.629Z,3
2023-02-15T06:05:31.755Z,3
2023-02-15T06:06:40.948Z,3
2023-02-15T06:07:50.101Z,3
2023-02-15T06:08:59.325Z,4
2023-02-15T06:10:08.476Z,0
2023-02-15T06:11:16.698Z,0
2023-02-15T06:12:24.833Z,4
2023-02-15T06:13:34.006Z,4
2023-02-15T06:14:43.241Z,1
2023-02-15T06:15:51.371Z,1
2023-02-15T06:16:59.561Z,5
2023-02-15T06:18:08.731Z,3
2023-02-15T06:19:17.910Z,2
2023-02-15T06:20:27.082Z,6
2023-02-15T06:21:36.344Z,6
2023-02-15T06:22:45.497Z,15
2023-02-15T06:23:54.615Z,20
2023-02-15T06:25:03.797Z,8
2023-02-15T06:26:12.951Z,8
2023-02-15T06:27:22.123Z,10
2023-02-15T06:28:31.353Z,18
2023-02-15T06:29:40.478Z,16
2023-02-15T06:30:49.647Z,20
2023-02-15T06:31:57.835Z,21
2023-02-15T06:33:07.033Z,35
2023-02-15T06:34:16.180Z,49
2023-02-15T06:35:25.347Z,59
2023-02-15T06:36:34.539Z,73
2023-02-15T06:37:43.828Z,79
2023-02-15T06:38:52.909Z,85
2023-02-15T06:40:01.062Z,107
2023-02-15T06:41:09.263Z,143
2023-02-15T06:42:18.584Z,171
2023-02-15T06:43:27.741Z,181
2023-02-15T06:44:36.782Z,205
2023-02-15T06:45:45.960Z,224
2023-02-15T06:46:55.307Z,256
2023-02-15T06:48:04.427Z,292
2023-02-15T06:49:13.598Z,333
2023-02-15T06:50:22.635Z,369
2023-02-15T06:51:31.811Z,407
2023-02-15T06:52:41.061Z,439
2023-02-15T06:53:50.181Z,489
2023-02-15T06:54:59.349Z,513
2023-02-15T06:56:07.566Z,564
2023-02-15T06:57:16.731Z,598
2023-02-15T06:58:25.880Z,647
2023-02-15T06:59:35.062Z,668
2023-02-15T07:00:44.241Z,740
2023-02-15T07:01:53.422Z,788
2023-02-15T07:03:02.574Z,805
2023-02-15T07:04:10.813Z,840
2023-02-15T07:05:18.942Z,805
2023-02-15T07:06:28.265Z,1068
2023-02-15T07:07:37.310Z,971
2023-02-15T07:09:55.640Z,1034
2023-02-15T07:11:04.814Z,1075
2023-02-15T07:12:13.984Z,1099
2023-02-15T07:13:23.177Z,1149
2023-02-15T07:14:32.403Z,1167
2023-02-15T07:15:41.497Z,1213
2023-02-15T07:16:50.677Z,1234
2023-02-15T07:17:59.856Z,1316
2023-02-15T07:19:09.029Z,1353
2023-02-15T07:20:17.224Z,1408
2023-02-15T07:21:26.435Z,1400
2023-02-15T07:22:35.573Z,1464
2023-02-15T07:23:44.803Z,1500
2023-02-15T07:24:53.938Z,1587
2023-02-15T07:26:03.095Z,1584
2023-02-15T07:27:12.254Z,1736
2023-02-15T07:28:21.416Z,1764
2023-02-15T07:29:29.641Z,1807
2023-02-15T07:30:37.964Z,1892
2023-02-15T07:31:46.169Z,1881
2023-02-15T07:32:54.192Z,1905
2023-02-15T07:34:03.357Z,1911
2023-02-15T07:35:12.540Z,1990
2023-02-15T07:36:21.899Z,2000
2023-02-15T07:37:30.889Z,2056
2023-02-15T07:38:40.103Z,2106
2023-02-15T07:39:49.249Z,2180
2023-02-15T07:40:58.413Z,2167
2023-02-15T07:42:07.584Z,2237
2023-02-15T07:43:16.801Z,2274
2023-02-15T07:44:26.021Z,2311
2023-02-15T07:45:35.102Z,2388
2023-02-15T07:46:44.301Z,2429
2023-02-15T07:47:52.469Z,2498
2023-02-15T07:49:01.663Z,2511
2023-02-15T07:50:10.822Z,2548
2023-02-15T07:51:20.019Z,2561
2023-02-15T07:52:29.333Z,2706
2023-02-15T07:53:38.475Z,2814
2023-02-15T07:54:47.507Z,2873
2023-02-15T07:55:55.698Z,2916
2023-02-15T07:57:03.907Z,3002
2023-02-15T07:58:12.085Z,3057
2023-02-15T07:59:20.346Z,3125
2023-02-15T08:00:29.454Z,3244
2023-02-15T08:01:38.617Z,3292
2023-02-15T08:02:47.795Z,3342
2023-02-15T08:03:56.991Z,3494
2023-02-15T08:05:06.161Z,3429
2023-02-15T08:06:15.323Z,3465
2023-02-15T08:07:24.534Z,3557
2023-02-15T08:08:33.648Z,3642
2023-02-15T08:09:42.845Z,3661
2023-02-15T08:10:51.998Z,3751
2023-02-15T08:12:01.202Z,3770
2023-02-15T08:13:10.389Z,3795
2023-02-15T08:14:18.543Z,3886
2023-02-15T08:15:27.718Z,3949
2023-02-15T08:16:36.904Z,3968
2023-02-15T08:17:46.062Z,4000
2023-02-15T08:18:55.230Z,4103
2023-02-15T08:20:04.441Z,4148
2023-02-15T08:21:13.581Z,4181
2023-02-15T08:22:21.830Z,4236
2023-02-15T08:23:29.976Z,4237
2023-02-15T08:24:39.151Z,4255
2023-02-15T08:25:47.340Z,4394
2023-02-15T08:26:55.523Z,4367
2023-02-15T08:28:04.682Z,4315
2023-02-15T08:29:13.951Z,4391
2023-02-15T08:30:23.056Z,4460
2023-02-15T08:31:32.211Z,4482
2023-02-15T08:32:41.387Z,4774
2023-02-15T08:33:50.547Z,4383
2023-02-15T08:34:59.775Z,4541
2023-02-15T08:36:08.898Z,4616
2023-02-15T08:37:18.065Z,4692
2023-02-15T08:38:27.235Z,4672
2023-02-15T08:39:36.494Z,4907
2023-02-15T08:40:45.598Z,5542
2023-02-15T08:41:53.773Z,6226
2023-02-15T08:43:02.958Z,3202
2023-02-15T08:44:12.208Z,4378
2023-02-15T08:45:21.333Z,4693
2023-02-15T08:46:30.473Z,4331
2023-02-15T08:47:39.638Z,4756
2023-02-15T08:48:48.802Z,5014
2023-02-15T08:49:57.004Z,4914
2023-02-15T08:51:05.192Z,4936
2023-02-15T08:52:13.412Z,4656
2023-02-15T08:53:21.612Z,4664
2023-02-15T08:54:30.757Z,4971
2023-02-15T08:55:39.923Z,7005
2023-02-15T08:56:49.114Z,4896
2023-02-15T08:57:58.264Z,4792
2023-02-15T08:59:07.496Z,4713
2023-02-15T09:00:16.612Z,5103
2023-02-15T09:01:25.786Z,5376
2023-02-15T09:02:34.964Z,5050
2023-02-15T09:03:44.142Z,5465
2023-02-15T09:04:53.313Z,5671
2023-02-15T09:06:02.490Z,5534
2023-02-15T09:07:11.647Z,5477
2023-02-15T09:08:19.849Z,5501
2023-02-15T09:09:29.042Z,5666
2023-02-15T09:10:38.181Z,5746
2023-02-15T09:11:47.385Z,5613
2023-02-15T09:12:56.535Z,5872
2023-02-15T09:14:05.703Z,5708
2023-02-15T09:15:15.096Z,5410
2023-02-15T09:16:23.072Z,5817
2023-02-15T09:17:31.303Z,5729
2023-02-15T09:18:39.446Z,6136
2023-02-15T09:19:47.647Z,6067
2023-02-15T09:20:56.834Z,6041
2023-02-15T09:22:05.985Z,6053
2023-02-15T09:23:15.162Z,6029
2023-02-15T09:24:24.374Z,6127
2023-02-15T09:25:33.498Z,6215
2023-02-15T09:26:42.687Z,6333
2023-02-15T09:27:51.848Z,6432
2023-02-15T09:29:01.030Z,6526
2023-02-15T09:30:10.192Z,6621
2023-02-15T09:31:19.378Z,6542
2023-02-15T09:32:28.557Z,6531
2023-02-15T09:33:37.703Z,6654
2023-02-15T09:34:45.895Z,6647
2023-02-15T09:35:55.081Z,6754
2023-02-15T09:37:04.229Z,7564
2023-02-15T09:38:13.429Z,6771
2023-02-15T09:39:22.635Z,6083
2023-02-15T09:40:31.750Z,6458
2023-02-15T09:41:40.988Z,6069
2023-02-15T09:42:49.137Z,7093
2023-02-15T09:43:57.308Z,7029
2023-02-15T09:45:06.494Z,7053
2023-02-15T09:46:15.688Z,7079
2023-02-15T09:47:24.835Z,6940
2023-02-15T09:48:34.007Z,7227
2023-02-15T09:49:43.222Z,7318
2023-02-15T09:50:51.404Z,7325
2023-02-15T09:52:00.538Z,7101
2023-02-15T09:53:09.729Z,7151
2023-02-15T09:54:18.876Z,7054
2023-02-15T09:55:28.057Z,7167
2023-02-15T09:56:37.243Z,7565
2023-02-15T09:57:46.412Z,7102
2023-02-15T09:58:55.585Z,7287
2023-02-15T10:00:04.749Z,7154
2023-02-15T10:01:13.961Z,7775
2023-02-15T10:02:23.146Z,7252
2023-02-15T10:03:32.292Z,7682
2023-02-15T10:04:41.425Z,7734
2023-02-15T10:05:49.667Z,7285
2023-02-15T10:06:57.815Z,7397
2023-02-15T10:08:06.002Z,7644
2023-02-15T10:09:14.197Z,7830
2023-02-15T10:10:22.406Z,7552
2023-02-15T10:11:31.693Z,6484
2023-02-15T10:12:40.747Z,9847
2023-02-15T10:13:48.937Z,7858
2023-02-15T10:14:57.125Z,8087
2023-02-15T10:16:06.307Z,7899
2023-02-15T10:17:15.460Z,8001
2023-02-15T10:18:24.629Z,7991
2023-02-15T10:19:33.829Z,7707
2023-02-15T10:20:42.977Z,7754
2023-02-15T10:21:52.149Z,7943
2023-02-15T10:23:01.349Z,7949
2023-02-15T10:24:10.506Z,8081
2023-02-15T10:25:19.674Z,8320
2023-02-15T10:26:28.977Z,9039
2023-02-15T10:27:38.005Z,8691
2023-02-15T10:28:47.195Z,9075
2023-02-15T10:29:55.471Z,9123
2023-02-15T10:31:04.547Z,8607
2023-02-15T10:32:13.710Z,8512
2023-02-15T10:33:22.950Z,8354
2023-02-15T10:34:32.114Z,8138
2023-02-15T10:35:41.325Z,8755
2023-02-15T10:36:50.393Z,10966
2023-02-15T10:37:58.604Z,12165
2023-02-15T10:39:06.817Z,10054
2023-02-15T10:40:15.967Z,10214
2023-02-15T10:41:24.217Z,10121
2023-02-15T10:42:32.397Z,9318
2023-02-15T10:43:41.615Z,10669
2023-02-15T10:44:50.683Z,9707
2023-02-15T10:45:59.868Z,8698
2023-02-15T10:47:09.034Z,9446
2023-02-15T10:48:18.229Z,9845
2023-02-15T10:49:27.378Z,8074
2023-02-15T10:50:36.605Z,10736
2023-02-15T10:51:45.720Z,13258
2023-02-15T10:52:54.932Z,12964
2023-02-15T10:54:04.083Z,10293
2023-02-15T10:55:13.246Z,11522
2023-02-15T10:56:22.425Z,12410
2023-02-15T10:57:30.598Z,10188
2023-02-15T10:58:39.800Z,12773
2023-02-15T10:59:48.940Z,10936
2023-02-15T11:00:58.121Z,11809
2023-02-15T11:02:07.339Z,12046
2023-02-15T11:03:16.639Z,13518
2023-02-15T11:04:25.725Z,12217
2023-02-15T11:05:33.882Z,11567
2023-02-15T11:06:42.168Z,11530
2023-02-15T11:07:51.200Z,11474
2023-02-15T11:09:00.360Z,10272
2023-02-15T11:10:08.553Z,11045
2023-02-15T11:11:16.737Z,11152
2023-02-15T11:12:25.897Z,10913
2023-02-15T11:13:35.080Z,12693
2023-02-15T11:14:44.305Z,13059
2023-02-15T11:15:53.426Z,11164
2023-02-15T11:17:02.677Z,10763
2023-02-15T11:18:11.775Z,12913
2023-02-15T11:19:20.964Z,12513
2023-02-15T11:20:30.163Z,10376
2023-02-15T11:21:39.290Z,8777
2023-02-15T11:23:57.649Z,10627
2023-02-15T11:25:06.834Z,9743
2023-02-15T11:26:14.978Z,8521
2023-02-15T11:27:24.205Z,9167
2023-02-15T11:28:33.338Z,9933
2023-02-15T11:29:42.555Z,9114
2023-02-15T11:30:51.710Z,10612
2023-02-15T11:32:00.864Z,10527
2023-02-15T11:33:10.012Z,11330
2023-02-15T11:34:19.196Z,11475
2023-02-15T11:35:27.388Z,9781
2023-02-15T11:36:35.580Z,10810
2023-02-15T11:37:43.785Z,10784
2023-02-15T11:38:52.018Z,10630
2023-02-15T11:40:01.145Z,9244
2023-02-15T11:41:10.397Z,9152
2023-02-15T11:42:19.475Z,9694
2023-02-15T11:43:28.660Z,9592
2023-02-15T11:44:37.821Z,9917
2023-02-15T11:45:46.993Z,8867
2023-02-15T11:46:56.159Z,8363
2023-02-15T11:48:05.336Z,9460
2023-02-15T11:50:23.679Z,9405
2023-02-15T11:51:32.886Z,9490
2023-02-15T11:52:42.030Z,9096
2023-02-15T11:53:50.220Z,9670
2023-02-15T11:54:59.428Z,8938
2023-02-15T11:56:08.556Z,9573
2023-02-15T11:57:17.738Z,9771
2023-02-15T11:58:26.903Z,9956
2023-02-15T11:59:36.124Z,9953
2023-02-15T12:00:45.279Z,11119
2023-02-15T12:01:54.446Z,8930
2023-02-15T12:03:03.622Z,9795
2023-02-15T12:04:11.899Z,9794
2023-02-15T12:05:20.114Z,9845
2023-02-15T12:06:28.268Z,9982
2023-02-15T12:07:36.383Z,9354
2023-02-15T12:08:45.554Z,9566
2023-02-15T12:09:54.724Z,9808
2023-02-15T12:11:03.895Z,9650
2023-02-15T12:12:13.076Z,10155
2023-02-15T12:13:22.268Z,10226
2023-02-15T12:14:31.497Z,9905
2023-02-15T12:15:40.579Z,9884
2023-02-15T12:16:49.773Z,9960
2023-02-15T12:17:59.006Z,10043
2023-02-15T12:19:08.140Z,10415
2023-02-15T12:20:17.279Z,10460
2023-02-15T12:21:26.450Z,10608
2023-02-15T12:22:34.689Z,10374
2023-02-15T12:23:43.890Z,10447
2023-02-15T12:24:52.983Z,10713
2023-02-15T12:26:02.170Z,10621
2023-02-15T12:27:11.341Z,10645
2023-02-15T12:28:20.510Z,10641
2023-02-15T12:29:29.678Z,10554
2023-02-15T12:30:37.857Z,10513
2023-02-15T12:31:46.054Z,10374
2023-02-15T12:32:54.265Z,10500
2023-02-15T12:34:02.480Z,10262
2023-02-15T12:35:11.709Z,10027
2023-02-15T12:36:20.785Z,10578
2023-02-15T12:37:29.957Z,10248
2023-02-15T12:38:39.119Z,10814
2023-02-15T12:39:48.344Z,10278
2023-02-15T12:40:57.502Z,10360
2023-02-15T12:42:06.850Z,10854
2023-02-15T12:43:15.980Z,10909
2023-02-15T12:44:25.127Z,11342
2023-02-15T12:45:34.291Z,10036
2023-02-15T12:46:43.787Z,9867
2023-02-15T12:47:52.648Z,10392
2023-02-15T12:49:00.940Z,10382
2023-02-15T12:50:10.181Z,10525
2023-02-15T12:51:19.172Z,11277
2023-02-15T12:52:28.222Z,11407
2023-02-15T12:53:37.517Z,10793
2023-02-15T12:54:46.606Z,10807
2023-02-15T12:55:55.818Z,11036
2023-02-15T12:57:03.923Z,11275
2023-02-15T12:58:12.136Z,11685
2023-02-15T12:59:20.294Z,11600
2023-02-15T13:00:28.540Z,11414
2023-02-15T13:01:37.659Z,11903
2023-02-15T13:02:46.929Z,11821
2023-02-15T13:03:55.998Z,12443
2023-02-15T13:05:05.175Z,12195
2023-02-15T13:06:14.345Z,12625
2023-02-15T13:07:23.525Z,12527
2023-02-15T13:08:32.699Z,12450
2023-02-15T13:09:42.049Z,12142
2023-02-15T13:10:51.036Z,12419
2023-02-15T13:12:00.319Z,12059
2023-02-15T13:13:09.459Z,11986
2023-02-15T13:14:18.756Z,10541
2023-02-15T13:15:26.774Z,11570
2023-02-15T13:16:36.018Z,12679
2023-02-15T13:17:45.199Z,11647
2023-02-15T13:18:54.335Z,10800
2023-02-15T13:20:03.482Z,11909
2023-02-15T13:21:12.879Z,11873
2023-02-15T13:22:21.844Z,11008
2023-02-15T13:23:29.999Z,12648
2023-02-15T13:24:38.262Z,11883
2023-02-15T13:25:47.417Z,11726
2023-02-15T13:26:56.530Z,8735
2023-02-15T13:28:05.733Z,9700
2023-02-15T13:29:14.976Z,14700
2023-02-15T13:30:24.020Z,14947
2023-02-15T13:31:33.209Z,14064
2023-02-15T13:32:42.415Z,14033
2023-02-15T13:33:51.527Z,12691
2023-02-15T13:35:00.706Z,12500
2023-02-15T13:36:09.933Z,14949
2023-02-15T13:37:19.093Z,11801
2023-02-15T13:38:28.223Z,14237
2023-02-15T13:39:36.470Z,7635
2023-02-15T13:40:45.585Z,8490
2023-02-15T13:41:53.785Z,10129
2023-02-15T13:43:02.945Z,15783
2023-02-15T13:44:12.188Z,19134
2023-02-15T13:45:21.296Z,16247
2023-02-15T13:46:30.584Z,10464
2023-02-15T13:47:38.662Z,14265
2023-02-15T13:48:47.830Z,17207
2023-02-15T13:49:56.025Z,15346
2023-02-15T13:51:04.214Z,16134
2023-02-15T13:52:12.460Z,13225
2023-02-15T13:53:20.708Z,11420
2023-02-15T13:54:29.811Z,23466
2023-02-15T13:55:38.945Z,18914
2023-02-15T13:56:48.118Z,14885
2023-02-15T13:59:06.465Z,9743
2023-02-15T14:00:15.641Z,20263
2023-02-15T14:01:24.817Z,25204
2023-02-15T14:02:34.008Z,19827
2023-02-15T14:03:43.366Z,13660
2023-02-15T14:04:52.450Z,14831
2023-02-15T14:06:01.784Z,9972
2023-02-15T14:07:10.830Z,13222
2023-02-15T14:08:18.857Z,13423
2023-02-15T14:09:28.290Z,20613
2023-02-15T14:10:37.361Z,17103
2023-02-15T14:11:46.618Z,19383
2023-02-15T14:12:55.698Z,21680
2023-02-15T14:14:04.797Z,16211
2023-02-15T14:15:13.893Z,20217
2023-02-15T14:16:23.127Z,12329
2023-02-15T14:17:31.383Z,12110
2023-02-15T14:19:48.759Z,19543
2023-02-15T14:20:57.940Z,18415
2023-02-15T14:22:06.145Z,23189
2023-02-15T14:23:14.174Z,13661
2023-02-15T14:24:23.361Z,20926
2023-02-15T14:25:32.501Z,13937
2023-02-15T14:26:41.693Z,19098
2023-02-15T14:27:50.963Z,21974
2023-02-15T14:29:00.178Z,24078
2023-02-15T14:30:09.289Z,15808
2023-02-15T14:31:18.455Z,16400
2023-02-15T14:32:27.557Z,18410
2023-02-15T14:33:36.904Z,16348
2023-02-15T14:34:46.028Z,18348
2023-02-15T14:35:55.059Z,13110
2023-02-15T14:37:04.236Z,31571
2023-02-15T14:38:13.404Z,45610
2023-02-15T14:39:21.579Z,50326
2023-02-15T14:40:30.777Z,43557
2023-02-15T14:41:39.967Z,36016
2023-02-15T14:42:49.101Z,27673
2023-02-15T14:43:58.280Z,26687
2023-02-15T14:45:07.446Z,30357
2023-02-15T14:46:15.641Z,28402
2023-02-15T14:47:23.830Z,24653
2023-02-15T14:48:32.039Z,34408
2023-02-15T14:49:40.223Z,26686
2023-02-15T14:50:49.566Z,31730
2023-02-15T14:51:58.740Z,21236
2023-02-15T14:53:07.843Z,26019
2023-02-15T14:55:26.135Z,18124
2023-02-15T14:56:35.361Z,20119
2023-02-15T14:57:44.580Z,28011
2023-02-15T14:58:53.599Z,32170
2023-02-15T15:00:02.878Z,28423
2023-02-15T15:01:12.003Z,23780
2023-02-15T15:02:21.108Z,25220
2023-02-15T15:03:30.340Z,23062
2023-02-15T15:04:38.471Z,26936
2023-02-15T15:05:47.641Z,22710
2023-02-15T15:06:56.893Z,24793
2023-02-15T15:08:06.078Z,18409
2023-02-15T15:09:15.209Z,13895
2023-02-15T15:10:24.488Z,14800
2023-02-15T15:11:33.500Z,14112
2023-02-15T15:12:42.786Z,12801
2023-02-15T15:13:51.007Z,11882
2023-02-15T15:14:59.130Z,10287
2023-02-15T15:16:08.324Z,9225
2023-02-15T15:17:17.466Z,7549
2023-02-15T15:18:26.608Z,7065
2023-02-15T15:19:35.745Z,6731
2023-02-15T15:20:44.965Z,6391
2023-02-15T15:21:54.156Z,6225
2023-02-15T15:23:03.336Z,5896
2023-02-15T15:24:12.494Z,5565
2023-02-15T15:25:21.801Z,5340
2023-02-15T15:26:30.960Z,5105
2023-02-15T15:27:40.011Z,4931
2023-02-15T15:28:49.110Z,4763
2023-02-15T15:29:57.311Z,4571
2023-02-15T15:31:06.537Z,4424
2023-02-15T15:32:15.816Z,4269
2023-02-15T15:33:24.826Z,4158
2023-02-15T15:34:34.128Z,4052
2023-02-15T15:35:43.166Z,3970
2023-02-15T15:36:52.368Z,3821
2023-02-15T15:38:00.548Z,3673
2023-02-15T15:39:08.788Z,3535
2023-02-15T15:40:16.979Z,3418
2023-02-15T15:41:25.110Z,3272
2023-02-15T15:42:34.277Z,3160
2023-02-15T15:43:43.469Z,3054
2023-02-15T15:44:52.653Z,2957
2023-02-15T15:46:01.791Z,2822
2023-02-15T15:47:10.962Z,2730
2023-02-15T15:48:20.199Z,2634
2023-02-15T15:49:29.360Z,2518
2023-02-15T15:50:38.533Z,2439
2023-02-15T15:51:47.753Z,2358
2023-02-15T15:52:56.835Z,2259
2023-02-15T15:54:06.022Z,2187
2023-02-15T15:55:15.214Z,2094
2023-02-15T15:56:23.365Z,2010
2023-02-15T15:57:32.540Z,1935
2023-02-15T15:58:41.710Z,1873
2023-02-15T16:01:00.066Z,1737